createdAt,value
2019-03-18T00:00:13.213Z,0.47
2019-03-18T00:02:41.442Z,0.98
2019-03-18T00:05:09.670Z,0.75
2019-03-18T00:07:37.911Z,0.80
2019-03-18T00:10:07.684Z,0.72
2019-03-18T00:12:35.925Z,0.93
2019-03-18T00:15:06.085Z,0.70
2019-03-18T00:17:34.423Z,0.90
2019-03-18T00:20:02.644Z,1.00
2019-03-18T00:22:30.892Z,1.02
2019-03-18T00:24:59.099Z,1.00
2019-03-18T00:27:27.356Z,0.90
2019-03-18T00:29:55.612Z,0.90
2019-03-18T00:32:23.829Z,0.65
2019-03-18T00:34:52.085Z,0.78
2019-03-18T00:37:20.321Z,0.80
2019-03-18T00:39:48.570Z,0.68
2019-03-18T00:42:16.814Z,0.60
2019-03-18T00:44:45.037Z,0.88
2019-03-18T00:47:13.282Z,0.70
2019-03-18T00:49:41.514Z,0.78
2019-03-18T00:52:09.765Z,0.93
2019-03-18T00:54:37.988Z,0.80
2019-03-18T00:57:06.215Z,0.78
2019-03-18T00:59:34.442Z,0.68
2019-03-18T01:02:02.672Z,0.53
2019-03-18T01:04:30.915Z,0.72
2019-03-18T01:06:59.172Z,0.62
2019-03-18T01:09:27.418Z,0.50
2019-03-18T01:11:55.646Z,0.85
2019-03-18T01:14:23.893Z,0.90
2019-03-18T01:16:52.116Z,1.37
2019-03-18T01:19:20.373Z,0.82
2019-03-18T01:21:48.591Z,1.05
2019-03-18T01:24:16.811Z,0.98
2019-03-18T01:26:45.049Z,0.60
2019-03-18T01:29:13.286Z,0.80
2019-03-18T01:31:41.537Z,0.60
2019-03-18T01:34:09.770Z,0.95
2019-03-18T01:36:38.009Z,0.55
2019-03-18T01:39:06.478Z,0.90
2019-03-18T01:41:34.714Z,0.80
2019-03-18T01:44:02.945Z,0.60
2019-03-18T01:46:31.195Z,1.00
2019-03-18T01:48:59.449Z,0.88
2019-03-18T01:51:27.693Z,0.90
2019-03-18T01:53:55.916Z,1.07
2019-03-18T01:56:24.161Z,1.02
2019-03-18T01:58:52.408Z,1.12
2019-03-18T02:01:20.647Z,1.10
2019-03-18T02:03:48.913Z,0.85
2019-03-18T02:06:17.224Z,0.88
2019-03-18T02:08:45.427Z,1.40
2019-03-18T02:11:13.678Z,1.00
2019-03-18T02:13:41.968Z,0.90
2019-03-18T02:16:10.225Z,1.20
2019-03-18T02:18:38.473Z,1.00
2019-03-18T02:21:06.730Z,0.93
2019-03-18T02:23:34.969Z,0.90
2019-03-18T02:26:03.249Z,0.80
2019-03-18T02:28:31.468Z,1.10
2019-03-18T02:30:59.717Z,1.45
2019-03-18T02:33:27.951Z,1.12
2019-03-18T02:35:56.176Z,1.00
2019-03-18T02:38:24.423Z,1.00
2019-03-18T02:40:52.802Z,0.90
2019-03-18T02:43:21.058Z,1.20
2019-03-18T02:45:49.281Z,0.68
2019-03-18T02:48:17.541Z,1.37
2019-03-18T02:50:45.762Z,1.35
2019-03-18T02:53:13.995Z,1.17
2019-03-18T02:55:42.241Z,1.15
2019-03-18T02:58:10.468Z,0.82
2019-03-18T03:00:38.704Z,1.00
2019-03-18T03:03:06.952Z,1.25
2019-03-18T03:05:35.166Z,1.52
2019-03-18T03:08:03.412Z,0.93
2019-03-18T03:10:31.675Z,1.10
2019-03-18T03:12:59.928Z,1.30
2019-03-18T03:15:28.216Z,1.32
2019-03-18T03:17:56.428Z,1.45
2019-03-18T03:20:24.697Z,1.10
2019-03-18T03:22:52.971Z,0.93
2019-03-18T03:25:24.701Z,1.10
2019-03-18T03:27:51.170Z,1.25
2019-03-18T03:30:19.404Z,0.98
2019-03-18T03:32:47.630Z,1.40
2019-03-18T03:35:15.865Z,1.22
2019-03-18T03:37:44.100Z,1.10
2019-03-18T03:40:12.407Z,1.40
2019-03-18T03:42:40.652Z,1.30
2019-03-18T03:45:13.517Z,1.07
2019-03-18T03:47:41.750Z,1.00
2019-03-18T03:50:14.032Z,1.20
2019-03-18T03:52:42.248Z,1.40
2019-03-18T03:55:11.530Z,2.00
2019-03-18T03:57:39.785Z,1.62
2019-03-18T04:00:13.075Z,1.20
2019-03-18T04:02:41.380Z,1.32
2019-03-18T04:05:09.643Z,1.52
2019-03-18T04:07:37.997Z,1.12
2019-03-18T04:10:08.968Z,1.30
2019-03-18T04:12:37.194Z,1.20
2019-03-18T04:15:12.829Z,1.25
2019-03-18T04:17:41.073Z,1.30
2019-03-18T04:20:11.790Z,1.50
2019-03-18T04:22:40.065Z,1.62
2019-03-18T04:25:08.660Z,1.47
2019-03-18T04:27:36.904Z,1.30
2019-03-18T04:30:10.918Z,1.80
2019-03-18T04:32:39.139Z,1.67
2019-03-18T04:35:07.393Z,1.60
2019-03-18T04:37:35.617Z,1.60
2019-03-18T04:40:04.084Z,1.52
2019-03-18T04:42:32.316Z,1.30
2019-03-18T04:45:00.548Z,1.57
2019-03-18T04:47:28.772Z,1.77
2019-03-18T04:49:57.021Z,1.72
2019-03-18T04:52:25.234Z,1.72
2019-03-18T04:54:53.504Z,1.62
2019-03-18T04:57:21.738Z,1.35
2019-03-18T04:59:49.956Z,1.37
2019-03-18T05:02:18.197Z,1.50
2019-03-18T05:04:46.414Z,1.30
2019-03-18T05:07:14.651Z,1.50
2019-03-18T05:09:42.877Z,1.22
2019-03-18T05:12:11.136Z,1.60
2019-03-18T05:14:39.333Z,1.05
2019-03-18T05:17:07.577Z,1.40
2019-03-18T05:19:35.794Z,1.40
2019-03-18T05:22:04.028Z,1.50
2019-03-18T05:24:32.277Z,2.10
2019-03-18T05:27:00.488Z,1.77
2019-03-18T05:29:28.744Z,2.20
2019-03-18T05:31:56.970Z,1.27
2019-03-18T05:34:25.235Z,1.60
2019-03-18T05:36:53.447Z,1.20
2019-03-18T05:39:21.660Z,1.72
2019-03-18T05:41:49.927Z,1.70
2019-03-18T05:44:18.153Z,1.75
2019-03-18T05:46:46.382Z,1.37
2019-03-18T05:49:14.627Z,1.30
2019-03-18T05:51:42.937Z,1.75
2019-03-18T05:54:11.153Z,1.37
2019-03-18T05:56:39.397Z,1.60
2019-03-18T05:59:07.630Z,2.02
2019-03-18T06:01:35.893Z,1.30
2019-03-18T06:04:04.130Z,2.05
2019-03-18T06:06:32.361Z,2.60
2019-03-18T06:09:00.612Z,5.55
2019-03-18T06:11:28.862Z,1.72
2019-03-18T06:13:57.085Z,2.08
2019-03-18T06:16:25.333Z,1.65
2019-03-18T06:18:53.554Z,1.60
2019-03-18T06:21:21.798Z,1.60
2019-03-18T06:23:50.020Z,2.42
2019-03-18T06:26:18.277Z,3.42
2019-03-18T06:28:46.490Z,5.75
2019-03-18T06:31:14.741Z,2.50
2019-03-18T06:33:43.025Z,2.42
2019-03-18T06:36:11.291Z,2.37
2019-03-18T06:38:39.536Z,2.10
2019-03-18T06:41:07.763Z,6.15
2019-03-18T06:43:36.071Z,3.42
2019-03-18T06:46:04.320Z,2.65
2019-03-18T06:48:32.556Z,7.55
2019-03-18T06:51:00.803Z,3.67
2019-03-18T06:53:29.039Z,3.05
2019-03-18T06:55:57.276Z,1.80
2019-03-18T06:58:25.517Z,1.50
2019-03-18T07:00:53.741Z,2.20
2019-03-18T07:03:21.974Z,2.10
2019-03-18T07:05:50.283Z,2.12
2019-03-18T07:08:18.509Z,1.45
2019-03-18T07:10:46.752Z,1.90
2019-03-18T07:13:14.983Z,1.67
2019-03-18T07:15:43.198Z,1.90
2019-03-18T07:18:18.302Z,1.57
2019-03-18T07:20:41.388Z,1.92
2019-03-18T07:23:09.629Z,1.82
2019-03-18T07:25:37.852Z,2.02
2019-03-18T07:28:06.098Z,2.05
2019-03-18T07:30:34.367Z,1.72
2019-03-18T07:33:02.584Z,1.95
2019-03-18T07:35:30.832Z,1.45
2019-03-18T07:37:59.073Z,1.62
2019-03-18T07:40:27.316Z,1.95
2019-03-18T07:42:55.550Z,2.00
2019-03-18T07:45:23.780Z,1.80
2019-03-18T07:47:52.020Z,2.15
2019-03-18T07:50:20.244Z,2.40
2019-03-18T07:52:48.492Z,1.80
2019-03-18T07:55:16.731Z,2.50
2019-03-18T07:57:44.958Z,2.20
2019-03-18T08:00:15.210Z,2.50
2019-03-18T08:02:43.470Z,2.55
2019-03-18T08:05:11.697Z,2.45
2019-03-18T08:07:39.906Z,2.02
2019-03-18T08:10:10.189Z,2.27
2019-03-18T08:12:38.430Z,2.35
2019-03-18T08:15:08.617Z,2.20
2019-03-18T08:17:36.833Z,2.00
2019-03-18T08:20:08.180Z,2.25
2019-03-18T08:22:36.403Z,2.52
2019-03-18T08:25:06.092Z,2.70
2019-03-18T08:27:34.316Z,2.47
2019-03-18T08:30:02.936Z,2.62
2019-03-18T08:32:31.172Z,1.90
2019-03-18T08:34:59.468Z,2.22
2019-03-18T08:37:27.698Z,2.58
2019-03-18T08:39:55.946Z,2.02
2019-03-18T08:42:24.187Z,2.42
2019-03-18T08:44:52.421Z,2.30
2019-03-18T08:47:20.655Z,2.67
2019-03-18T08:49:48.897Z,1.82
2019-03-18T08:52:17.129Z,2.17
2019-03-18T08:54:45.356Z,1.87
2019-03-18T08:57:13.596Z,2.00
2019-03-18T08:59:41.835Z,2.65
2019-03-18T09:02:10.053Z,1.87
2019-03-18T09:04:38.296Z,2.12
2019-03-18T09:07:06.547Z,1.40
2019-03-18T09:09:34.772Z,2.12
2019-03-18T09:12:03.022Z,1.52
2019-03-18T09:14:31.288Z,1.50
2019-03-18T09:16:59.505Z,1.67
2019-03-18T09:19:27.748Z,4.28
2019-03-18T09:21:55.967Z,1.30
2019-03-18T09:24:24.208Z,2.15
2019-03-18T09:27:02.021Z,2.05
2019-03-18T09:29:22.399Z,1.90
2019-03-18T09:31:50.682Z,2.83
2019-03-18T09:34:18.895Z,1.37
2019-03-18T09:36:47.120Z,3.52
2019-03-18T09:39:15.373Z,2.00
2019-03-18T09:41:43.592Z,1.60
2019-03-18T09:44:11.823Z,3.72
2019-03-18T09:46:40.042Z,1.80
2019-03-18T09:49:20.740Z,1.82
2019-03-18T09:51:38.269Z,1.52
2019-03-18T09:54:06.491Z,1.22
2019-03-18T09:56:34.741Z,1.42
2019-03-18T09:59:02.976Z,1.15
2019-03-18T10:01:31.218Z,1.70
2019-03-18T10:03:59.458Z,1.20
2019-03-18T10:06:27.682Z,1.00
2019-03-18T10:08:55.901Z,1.15
2019-03-18T10:11:24.155Z,1.45
2019-03-18T10:13:52.410Z,1.37
2019-03-18T10:16:20.635Z,1.40
2019-03-18T10:18:48.884Z,1.40
2019-03-18T10:21:17.112Z,2.33
2019-03-18T10:23:45.368Z,2.52
2019-03-18T10:26:13.592Z,1.82
2019-03-18T10:28:41.840Z,1.65
2019-03-18T10:31:10.081Z,1.60
2019-03-18T10:33:57.739Z,1.57
2019-03-18T10:36:25.997Z,1.50
2019-03-18T10:38:54.217Z,1.37
2019-03-18T10:41:22.451Z,1.87
2019-03-18T10:43:50.707Z,1.35
2019-03-18T10:46:18.965Z,2.20
2019-03-18T10:48:47.214Z,1.80
2019-03-18T10:51:15.435Z,1.45
2019-03-18T10:53:44.690Z,1.40
2019-03-18T10:56:13.166Z,2.25
2019-03-18T10:58:41.413Z,1.62
2019-03-18T11:01:09.631Z,1.30
2019-03-18T11:03:39.033Z,1.60
2019-03-18T11:06:07.479Z,1.22
2019-03-18T11:08:35.718Z,1.50
2019-03-18T11:11:03.959Z,1.07
2019-03-18T11:13:32.204Z,0.80
2019-03-18T11:16:00.429Z,1.30
2019-03-18T11:18:28.683Z,1.40
2019-03-18T11:20:56.927Z,0.93
2019-03-18T11:23:25.314Z,1.05
2019-03-18T11:25:53.712Z,0.80
2019-03-18T11:28:21.946Z,1.55
2019-03-18T11:30:50.203Z,1.20
2019-03-18T11:33:18.446Z,1.02
2019-03-18T11:35:46.705Z,1.50
2019-03-18T11:38:15.009Z,1.72
2019-03-18T11:40:43.252Z,1.32
2019-03-18T11:43:11.480Z,1.60
2019-03-18T11:45:39.731Z,1.02
2019-03-18T11:48:07.957Z,1.00
2019-03-18T11:50:36.193Z,0.70
2019-03-18T11:53:13.662Z,0.68
2019-03-18T11:55:34.391Z,1.32
2019-03-18T11:58:02.638Z,0.88
2019-03-18T12:00:30.840Z,0.82
2019-03-18T12:02:59.088Z,1.02
2019-03-18T12:05:27.980Z,0.88
2019-03-18T12:07:56.229Z,0.72
2019-03-18T12:10:25.945Z,0.85
2019-03-18T12:12:54.559Z,1.02
2019-03-18T12:15:25.212Z,0.85
2019-03-18T12:17:53.483Z,0.65
2019-03-18T12:20:24.949Z,1.22
2019-03-18T12:22:51.726Z,1.05
2019-03-18T12:25:19.983Z,0.85
2019-03-18T12:27:48.214Z,0.62
2019-03-18T12:30:21.239Z,0.78
2019-03-18T12:32:49.494Z,1.10
2019-03-18T12:35:17.714Z,1.65
2019-03-18T12:37:45.956Z,1.00
2019-03-18T12:40:15.027Z,0.80
2019-03-18T12:42:43.238Z,0.75
2019-03-18T12:45:13.229Z,0.93
2019-03-18T12:47:41.452Z,1.00
2019-03-18T12:50:15.970Z,1.35
2019-03-18T12:52:44.208Z,1.40
2019-03-18T12:55:12.451Z,1.65
2019-03-18T12:57:40.659Z,0.98
2019-03-18T13:00:14.881Z,1.15
2019-03-18T13:02:43.107Z,0.93
2019-03-18T13:05:11.353Z,0.68
2019-03-18T13:07:39.584Z,0.95
2019-03-18T13:10:13.906Z,0.88
2019-03-18T13:12:42.121Z,1.00
2019-03-18T13:15:13.434Z,0.70
2019-03-18T13:17:43.832Z,0.93
2019-03-18T13:20:14.246Z,1.20
2019-03-18T13:22:42.482Z,0.90
2019-03-18T13:25:11.925Z,1.35
2019-03-18T13:27:40.181Z,1.27
2019-03-18T13:30:19.885Z,0.90
2019-03-18T13:32:48.143Z,1.07
2019-03-18T13:35:16.348Z,0.80
2019-03-18T13:37:44.608Z,0.60
2019-03-18T13:40:14.915Z,0.50
2019-03-18T13:42:43.165Z,1.20
2019-03-18T13:45:15.998Z,0.75
2019-03-18T13:47:44.214Z,0.80
2019-03-18T13:50:14.592Z,1.20
2019-03-18T13:52:42.888Z,1.00
2019-03-18T13:55:11.138Z,1.40
2019-03-18T13:57:39.380Z,1.40
2019-03-18T14:00:11.768Z,1.87
2019-03-18T14:02:40.141Z,1.40
2019-03-18T14:05:08.816Z,1.22
2019-03-18T14:07:37.064Z,1.35
2019-03-18T14:10:13.586Z,0.95
2019-03-18T14:12:41.831Z,1.10
2019-03-18T14:15:16.109Z,1.20
2019-03-18T14:17:44.333Z,1.60
2019-03-18T14:20:14.614Z,1.52
2019-03-18T14:22:42.846Z,1.12
2019-03-18T14:25:11.720Z,1.57
2019-03-18T14:27:39.972Z,1.40
2019-03-18T14:30:22.177Z,1.17
2019-03-18T14:32:50.436Z,1.20
2019-03-18T14:35:24.453Z,1.92
2019-03-18T14:37:52.833Z,1.20
2019-03-18T14:40:25.502Z,0.98
2019-03-18T14:42:53.753Z,0.70
2019-03-18T14:45:25.528Z,0.80
2019-03-18T14:47:53.791Z,1.10
2019-03-18T14:50:22.030Z,1.10
2019-03-18T14:52:50.274Z,0.70
2019-03-18T14:55:18.977Z,0.20
2019-03-18T14:57:47.184Z,0.60
2019-03-18T15:00:18.171Z,0.50
2019-03-18T15:02:46.462Z,1.10
2019-03-18T15:05:15.408Z,0.78
2019-03-18T15:07:43.656Z,0.50
2019-03-18T15:10:13.831Z,0.90
2019-03-18T15:12:42.116Z,0.90
2019-03-18T15:15:12.851Z,0.80
2019-03-18T15:17:41.136Z,1.25
2019-03-18T15:20:12.330Z,1.15
2019-03-18T15:22:40.898Z,1.30
2019-03-18T15:25:15.032Z,0.70
2019-03-18T15:27:43.264Z,0.70
2019-03-18T15:30:16.889Z,1.00
2019-03-18T15:32:45.135Z,1.10
2019-03-18T15:35:13.722Z,1.30
2019-03-18T15:37:41.964Z,1.00
2019-03-18T15:40:18.254Z,1.15
2019-03-18T15:45:16.064Z,1.22
2019-03-18T15:47:44.326Z,1.07
2019-03-18T15:50:14.826Z,1.17
2019-03-18T15:52:43.030Z,1.40
2019-03-18T15:55:11.628Z,0.95
2019-03-18T15:57:39.866Z,1.30
2019-03-18T16:00:16.379Z,0.93
2019-03-18T16:02:44.642Z,1.20
2019-03-18T16:05:12.870Z,0.98
2019-03-18T16:07:41.093Z,1.45
2019-03-18T16:10:17.213Z,1.07
2019-03-18T16:12:45.459Z,1.07
2019-03-18T16:15:15.614Z,1.10
2019-03-18T16:17:43.930Z,1.02
2019-03-18T16:20:17.514Z,1.10
2019-03-18T16:22:45.767Z,1.25
2019-03-18T16:25:13.996Z,1.10
2019-03-18T16:27:42.219Z,1.07
2019-03-18T16:30:21.650Z,0.80
2019-03-18T16:32:49.876Z,1.10
2019-03-18T16:35:18.198Z,1.10
2019-03-18T16:37:46.500Z,0.98
2019-03-18T16:40:21.942Z,1.02
2019-03-18T16:42:50.211Z,1.10
2019-03-18T16:45:19.311Z,1.00
2019-03-18T16:47:47.584Z,1.30
2019-03-18T16:50:27.911Z,1.00
2019-03-18T16:52:56.120Z,1.25
2019-03-18T16:55:24.354Z,1.02
2019-03-18T16:57:52.604Z,1.07
2019-03-18T17:00:23.711Z,1.45
2019-03-18T17:02:51.937Z,1.87
2019-03-18T17:05:20.185Z,1.70
2019-03-18T17:07:48.418Z,2.42
2019-03-18T17:10:16.706Z,1.17
2019-03-18T17:12:44.973Z,0.80
2019-03-18T17:15:14.446Z,0.78
2019-03-18T17:17:42.759Z,0.57
2019-03-18T17:20:12.652Z,0.60
2019-03-18T17:22:48.956Z,1.00
2019-03-18T17:25:14.177Z,1.00
2019-03-18T17:27:42.404Z,1.10
2019-03-18T17:30:18.238Z,1.17
2019-03-18T17:32:46.765Z,1.40
2019-03-18T17:35:14.990Z,1.10
2019-03-18T17:37:43.232Z,0.93
2019-03-18T17:40:14.181Z,1.12
2019-03-18T17:42:42.532Z,1.15
2019-03-18T17:45:12.938Z,1.10
2019-03-18T17:47:41.167Z,1.00
2019-03-18T17:50:12.686Z,1.67
2019-03-18T17:52:40.943Z,1.07
2019-03-18T17:55:09.182Z,1.05
2019-03-18T17:57:37.416Z,1.30
2019-03-18T18:00:08.972Z,1.00
2019-03-18T18:02:37.224Z,0.80
2019-03-18T18:05:06.113Z,1.37
2019-03-18T18:07:34.410Z,1.10
2019-03-18T18:10:02.687Z,1.47
2019-03-18T18:12:30.927Z,1.12
2019-03-18T18:14:59.207Z,1.40
2019-03-18T18:17:27.493Z,1.15
2019-03-18T18:19:55.704Z,1.00
2019-03-18T18:22:23.935Z,1.00
2019-03-18T18:24:53.037Z,1.20
2019-03-18T18:27:21.254Z,1.20
2019-03-18T18:29:49.480Z,1.27
2019-03-18T18:32:17.776Z,2.33
2019-03-18T18:34:46.014Z,2.02
2019-03-18T18:37:14.340Z,1.82
2019-03-18T18:39:42.667Z,1.55
2019-03-18T18:42:10.903Z,1.70
2019-03-18T18:44:39.162Z,1.92
2019-03-18T18:47:07.393Z,2.10
2019-03-18T18:49:35.602Z,2.35
2019-03-18T18:52:03.848Z,2.25
2019-03-18T18:54:32.083Z,2.05
2019-03-18T18:57:00.361Z,2.22
2019-03-18T18:59:28.586Z,2.58
2019-03-18T19:01:56.810Z,2.05
2019-03-18T19:04:25.065Z,2.58
2019-03-18T19:06:53.296Z,2.55
2019-03-18T19:09:21.503Z,3.05
2019-03-18T19:11:49.767Z,2.62
2019-03-18T19:14:17.988Z,2.80
2019-03-18T19:16:46.203Z,3.00
2019-03-18T19:19:14.456Z,3.00
2019-03-18T19:21:42.693Z,2.37
2019-03-18T19:24:10.921Z,3.33
2019-03-18T19:26:39.186Z,2.80
2019-03-18T19:29:07.493Z,4.83
2019-03-18T19:31:35.769Z,5.10
2019-03-18T19:34:04.030Z,4.95
2019-03-18T19:36:32.255Z,4.58
2019-03-18T19:39:00.472Z,4.33
2019-03-18T19:41:28.715Z,5.00
2019-03-18T19:43:56.953Z,4.75
2019-03-18T19:46:25.170Z,4.40
2019-03-18T19:48:53.418Z,4.78
2019-03-18T19:51:21.642Z,4.90
2019-03-18T19:53:49.909Z,5.08
2019-03-18T19:56:18.127Z,4.70
2019-03-18T19:58:46.359Z,4.40
2019-03-18T20:01:14.610Z,5.03
2019-03-18T20:03:42.835Z,5.30
2019-03-18T20:06:11.068Z,5.53
2019-03-18T20:08:39.327Z,4.97
2019-03-18T20:11:07.546Z,5.05
2019-03-18T20:13:35.807Z,5.85
2019-03-18T20:16:04.053Z,5.35
2019-03-18T20:18:32.268Z,5.60
2019-03-18T20:21:00.537Z,6.03
2019-03-18T20:23:28.748Z,5.92
2019-03-18T20:25:56.972Z,5.83
2019-03-18T20:28:25.219Z,6.28
2019-03-18T20:30:53.462Z,7.15
2019-03-18T20:33:21.705Z,6.45
2019-03-18T20:35:49.935Z,6.92
2019-03-18T20:38:18.185Z,7.25
2019-03-18T20:40:46.442Z,7.62
2019-03-18T20:43:14.694Z,6.55
2019-03-18T20:45:42.934Z,6.97
2019-03-18T20:48:11.176Z,7.80
2019-03-18T20:50:39.391Z,8.15
2019-03-18T20:53:07.624Z,8.38
2019-03-18T20:55:35.871Z,8.78
2019-03-18T20:58:04.125Z,7.62
2019-03-18T21:00:32.340Z,7.42
2019-03-18T21:03:00.574Z,6.85
2019-03-18T21:05:28.832Z,6.80
2019-03-18T21:07:57.067Z,7.95
2019-03-18T21:10:25.293Z,7.20
2019-03-18T21:12:53.574Z,7.80
2019-03-18T21:15:21.891Z,7.53
2019-03-18T21:17:50.143Z,8.20
2019-03-18T21:20:25.493Z,8.20
2019-03-18T21:22:53.851Z,7.40
2019-03-18T21:25:22.076Z,8.85
2019-03-18T21:27:50.319Z,7.87
2019-03-18T21:30:20.665Z,7.92
2019-03-18T21:32:48.940Z,7.33
2019-03-18T21:35:17.200Z,7.97
2019-03-18T21:37:45.469Z,8.23
2019-03-18T21:40:20.246Z,7.40
2019-03-18T21:42:48.550Z,8.90
2019-03-18T21:45:23.152Z,7.47
2019-03-18T21:47:50.557Z,7.70
2019-03-18T21:50:18.826Z,8.33
2019-03-18T21:52:47.141Z,8.50
2019-03-18T21:55:16.217Z,9.95
2019-03-18T21:57:44.443Z,9.58
2019-03-18T22:00:17.857Z,9.38
2019-03-18T22:02:46.092Z,10.28
2019-03-18T22:05:14.470Z,10.72
2019-03-18T22:07:42.726Z,10.20
2019-03-18T22:10:16.244Z,9.53
2019-03-18T22:12:44.497Z,10.63
2019-03-18T22:15:13.694Z,11.08
2019-03-18T22:17:41.938Z,10.88
2019-03-18T22:20:12.453Z,9.93
2019-03-18T22:22:40.680Z,9.78
2019-03-18T22:25:10.250Z,10.18
2019-03-18T22:27:38.522Z,9.78
2019-03-18T22:30:26.182Z,8.83
2019-03-18T22:32:54.452Z,9.98
2019-03-18T22:35:22.669Z,9.50
2019-03-18T22:37:50.916Z,9.53
2019-03-18T22:40:19.157Z,9.48
2019-03-18T22:42:47.418Z,9.33
2019-03-18T22:45:16.372Z,9.70
2019-03-18T22:47:44.620Z,10.45
2019-03-18T22:50:20.452Z,11.08
2019-03-18T22:52:48.694Z,10.38
2019-03-18T22:55:16.945Z,10.45
2019-03-18T22:57:45.163Z,11.83
2019-03-18T23:00:26.763Z,10.58
2019-03-18T23:02:55.003Z,11.50
2019-03-18T23:05:23.239Z,10.55
2019-03-18T23:07:51.491Z,11.55
2019-03-18T23:10:19.734Z,9.70
2019-03-18T23:12:47.979Z,9.18
2019-03-18T23:15:16.227Z,9.33
2019-03-18T23:17:44.451Z,8.83
2019-03-18T23:20:12.759Z,9.48
2019-03-18T23:22:41.004Z,8.13
2019-03-18T23:25:09.254Z,8.80
2019-03-18T23:27:37.492Z,8.08
2019-03-18T23:30:08.534Z,8.83
2019-03-18T23:32:36.752Z,8.78
2019-03-18T23:35:06.432Z,8.38
2019-03-18T23:37:34.698Z,7.83
2019-03-18T23:40:04.089Z,9.28
2019-03-18T23:42:32.332Z,8.95
2019-03-18T23:45:00.568Z,8.30
2019-03-18T23:47:28.797Z,8.00
2019-03-18T23:49:57.030Z,7.75
2019-03-18T23:52:25.299Z,9.25
2019-03-18T23:54:53.520Z,8.20
2019-03-18T23:57:21.738Z,11.83
2019-03-18T23:59:50.003Z,9.10
